FDX84 PANC-KMEM
Flight info
| Callsign | FDX84 |
|---|---|
| Flight time | N/A |
| Altitude | 33000 |
| Route | NOEND4 NOEND YAK NCA10 DEEJA MITOM 57N125W YQU YEGGA GUDOG/N0485F350 ITREK ISN KEKPE OVR DRIVL MAHER WHOLL BRBBQ3 |
| Aircraft | B77L/H-SDE1E2E3FGHIJ2J3J4J5M1RWXY/LB1D1 |
Departure
| Time | 2026-05-04 19:20 |
|---|---|
| Airport | Ted Stevens Anchorage International Airport (PANC) |
Arrival
| Time | N/A |
|---|---|
| Airport | Memphis International Airport (KMEM) |
| Time | Latitude | Longitude | Altitude | Speed | Heading |
|---|---|---|---|---|---|
| 2026-05-04 18:27 | 61.18989 | -149.99936 | 120 ft | 0 kts | 75° |
| 2026-05-04 19:07 | 61.18988 | -149.99946 | 126 ft | 3 kts | 75° |
| 2026-05-04 19:07 | 61.18981 | -149.99999 | 139 ft | 4 kts | 77° |
| 2026-05-04 19:08 | 61.18979 | -150.00052 | 95 ft | 4 kts | 107° |
| 2026-05-04 19:08 | 61.18992 | -150.00095 | 108 ft | 4 kts | 149° |
| 2026-05-04 19:08 | 61.19010 | -150.00110 | 111 ft | 1 kts | 166° |
| 2026-05-04 19:08 | 61.19013 | -150.00112 | 109 ft | 0 kts | 166° |
| 2026-05-04 19:12 | 61.18994 | -150.00102 | 94 ft | 10 kts | 166° |
| 2026-05-04 19:13 | 61.18927 | -150.00065 | 94 ft | 10 kts | 165° |
| 2026-05-04 19:13 | 61.18860 | -150.00029 | 144 ft | 10 kts | 165° |
| 2026-05-04 19:13 | 61.18794 | -149.99993 | 124 ft | 10 kts | 166° |
| 2026-05-04 19:13 | 61.18735 | -150.00041 | 130 ft | 10 kts | 236° |
| 2026-05-04 19:14 | 61.18710 | -150.00174 | 125 ft | 10 kts | 254° |
| 2026-05-04 19:14 | 61.18686 | -150.00306 | 128 ft | 10 kts | 233° |
| 2026-05-04 19:14 | 61.18622 | -150.00339 | 132 ft | 10 kts | 172° |
| 2026-05-04 19:14 | 61.18555 | -150.00306 | 126 ft | 10 kts | 165° |
| 2026-05-04 19:15 | 61.18462 | -150.00255 | 126 ft | 17 kts | 165° |
| 2026-05-04 19:15 | 61.18349 | -150.00193 | 126 ft | 17 kts | 164° |
| 2026-05-04 19:15 | 61.18238 | -150.00128 | 112 ft | 17 kts | 165° |
| 2026-05-04 19:15 | 61.18125 | -150.00065 | 103 ft | 17 kts | 165° |
| 2026-05-04 19:16 | 61.18012 | -150.00001 | 132 ft | 17 kts | 165° |
| 2026-05-04 19:16 | 61.17899 | -149.99938 | 119 ft | 17 kts | 165° |
| 2026-05-04 19:16 | 61.17786 | -149.99875 | 121 ft | 17 kts | 165° |
| 2026-05-04 19:16 | 61.17673 | -149.99812 | 120 ft | 17 kts | 165° |
| 2026-05-04 19:17 | 61.17560 | -149.99750 | 120 ft | 17 kts | 165° |
| 2026-05-04 19:17 | 61.17448 | -149.99689 | 120 ft | 17 kts | 165° |
| 2026-05-04 19:17 | 61.17335 | -149.99624 | 123 ft | 17 kts | 164° |
| 2026-05-04 19:17 | 61.17222 | -149.99562 | 125 ft | 17 kts | 166° |
| 2026-05-04 19:18 | 61.17150 | -149.99564 | 135 ft | 9 kts | 210° |
| 2026-05-04 19:18 | 61.17130 | -149.99628 | 129 ft | 0 kts | 252° |
| 2026-05-04 19:18 | 61.17127 | -149.99663 | 128 ft | 7 kts | 262° |
| 2026-05-04 19:19 | 61.17127 | -149.99770 | 133 ft | 7 kts | 277° |
| 2026-05-04 19:19 | 61.17155 | -149.99856 | 132 ft | 7 kts | 325° |
| 2026-05-04 19:19 | 61.17202 | -149.99898 | 130 ft | 7 kts | 344° |
| 2026-05-04 19:19 | 61.17306 | -149.99952 | 127 ft | 36 kts | 346° |
| 2026-05-04 19:20 | 61.17771 | -150.00214 | 126 ft | 101 kts | 345° |
| 2026-05-04 19:20 | 61.18634 | -150.00701 | 138 ft | 153 kts | 345° |
| 2026-05-04 19:20 | 61.19763 | -150.01313 | 401 ft | 171 kts | 346° |
| 2026-05-04 19:20 | 61.20901 | -150.01979 | 1050 ft | 170 kts | 341° |
| 2026-05-04 19:21 | 61.21912 | -150.03327 | 1508 ft | 177 kts | 323° |
| 2026-05-04 19:21 | 61.22865 | -150.04976 | 1892 ft | 186 kts | 324° |
| 2026-05-04 19:21 | 61.23938 | -150.06720 | 2041 ft | 204 kts | 326° |
| 2026-05-04 19:21 | 61.25119 | -150.08564 | 2258 ft | 223 kts | 326° |
| 2026-05-04 19:22 | 61.26420 | -150.10504 | 2647 ft | 230 kts | 327° |
| 2026-05-04 19:22 | 61.27757 | -150.12378 | 3170 ft | 238 kts | 330° |
| 2026-05-04 19:22 | 61.29312 | -150.13589 | 3373 ft | 245 kts | 2° |
| 2026-05-04 19:22 | 61.30936 | -150.12789 | 3817 ft | 241 kts | 38° |
| 2026-05-04 19:23 | 61.32050 | -150.10351 | 4386 ft | 234 kts | 58° |
| 2026-05-04 19:23 | 61.33088 | -150.07633 | 4901 ft | 239 kts | 56° |
| 2026-05-04 19:23 | 61.34157 | -150.04976 | 5503 ft | 245 kts | 56° |
| 2026-05-04 19:23 | 61.35212 | -150.02173 | 5972 ft | 242 kts | 69° |
| 2026-05-04 19:24 | 61.35508 | -149.98798 | 6337 ft | 234 kts | 105° |
| 2026-05-04 19:24 | 61.34869 | -149.95663 | 6525 ft | 244 kts | 129° |
| 2026-05-04 19:24 | 61.33726 | -149.93038 | 7030 ft | 244 kts | 135° |
| 2026-05-04 19:24 | 61.32532 | -149.90479 | 7425 ft | 255 kts | 137° |
| 2026-05-04 19:25 | 61.31305 | -149.87792 | 8099 ft | 256 kts | 136° |
| 2026-05-04 19:25 | 61.30087 | -149.85064 | 8865 ft | 254 kts | 136° |
| 2026-05-04 19:25 | 61.28882 | -149.82365 | 9581 ft | 257 kts | 137° |
| 2026-05-04 19:25 | 61.27647 | -149.79612 | 10060 ft | 263 kts | 137° |
| 2026-05-04 19:26 | 61.26546 | -149.76502 | 10306 ft | 282 kts | 118° |
| 2026-05-04 19:26 | 61.26004 | -149.72397 | 10451 ft | 303 kts | 109° |
| 2026-05-04 19:26 | 61.25480 | -149.68010 | 10608 ft | 323 kts | 110° |
| 2026-05-04 19:26 | 61.24885 | -149.63399 | 10765 ft | 343 kts | 110° |
| 2026-05-04 19:27 | 61.24290 | -149.58468 | 11038 ft | 360 kts | 107° |
| 2026-05-04 19:27 | 61.23786 | -149.53298 | 11604 ft | 369 kts | 105° |
| 2026-05-04 19:27 | 61.23286 | -149.48005 | 12295 ft | 376 kts | 106° |
| 2026-05-04 19:27 | 61.22763 | -149.42649 | 13063 ft | 380 kts | 106° |
| 2026-05-04 19:28 | 61.22222 | -149.37231 | 13867 ft | 384 kts | 106° |
| 2026-05-04 19:28 | 61.21696 | -149.31826 | 14474 ft | 390 kts | 107° |
| 2026-05-04 19:28 | 61.21162 | -149.26293 | 15168 ft | 393 kts | 107° |
| 2026-05-04 19:28 | 61.20626 | -149.20687 | 15923 ft | 396 kts | 107° |
| 2026-05-04 19:29 | 61.20087 | -149.15052 | 16735 ft | 399 kts | 107° |
| 2026-05-04 19:29 | 61.19537 | -149.09353 | 17340 ft | 405 kts | 107° |
| 2026-05-04 19:29 | 61.18986 | -149.03600 | 18042 ft | 408 kts | 108° |
| 2026-05-04 19:29 | 61.18432 | -148.97802 | 18750 ft | 410 kts | 108° |
| 2026-05-04 19:30 | 61.17858 | -148.92007 | 19346 ft | 413 kts | 108° |
| 2026-05-04 19:30 | 61.17269 | -148.86132 | 19887 ft | 417 kts | 108° |
| 2026-05-04 19:30 | 61.16678 | -148.80238 | 20362 ft | 420 kts | 107° |
| 2026-05-04 19:30 | 61.16090 | -148.74348 | 20890 ft | 424 kts | 107° |
| 2026-05-04 19:31 | 61.15488 | -148.68351 | 21454 ft | 427 kts | 107° |
| 2026-05-04 19:31 | 61.14880 | -148.62308 | 21974 ft | 430 kts | 107° |
| 2026-05-04 19:31 | 61.14268 | -148.56218 | 22552 ft | 432 kts | 107° |
| 2026-05-04 19:31 | 61.13645 | -148.50095 | 23059 ft | 437 kts | 107° |
| 2026-05-04 19:32 | 61.12982 | -148.43936 | 23616 ft | 439 kts | 109° |
| 2026-05-04 19:32 | 61.12172 | -148.37817 | 24053 ft | 442 kts | 111° |
| 2026-05-04 19:32 | 61.11276 | -148.31729 | 24514 ft | 443 kts | 112° |
| 2026-05-04 19:32 | 61.10352 | -148.25626 | 25014 ft | 445 kts | 113° |
| 2026-05-04 19:33 | 61.09436 | -148.19580 | 25556 ft | 447 kts | 113° |
| 2026-05-04 19:33 | 61.08507 | -148.13403 | 26024 ft | 450 kts | 113° |
| 2026-05-04 19:33 | 61.07580 | -148.07202 | 26445 ft | 453 kts | 113° |
| 2026-05-04 19:33 | 61.06653 | -148.00958 | 26892 ft | 455 kts | 113° |
| 2026-05-04 19:34 | 61.05725 | -147.94688 | 27297 ft | 459 kts | 113° |
| 2026-05-04 19:34 | 61.04789 | -147.88367 | 27712 ft | 461 kts | 114° |
| 2026-05-04 19:34 | 61.03847 | -147.82017 | 28151 ft | 464 kts | 114° |
| 2026-05-04 19:34 | 61.02901 | -147.75693 | 28593 ft | 466 kts | 114° |
| 2026-05-04 19:35 | 61.01949 | -147.69297 | 28992 ft | 469 kts | 114° |
| 2026-05-04 19:35 | 61.00983 | -147.62842 | 29318 ft | 472 kts | 114° |
| 2026-05-04 19:35 | 61.00007 | -147.56362 | 29718 ft | 473 kts | 115° |
| 2026-05-04 19:35 | 60.99027 | -147.49882 | 30127 ft | 473 kts | 115° |
| 2026-05-04 19:36 | 60.98045 | -147.43409 | 30566 ft | 472 kts | 115° |
| 2026-05-04 19:36 | 60.97076 | -147.37036 | 30993 ft | 470 kts | 115° |
| 2026-05-04 19:36 | 60.96097 | -147.30618 | 31396 ft | 469 kts | 116° |
| 2026-05-04 19:36 | 60.95117 | -147.24215 | 31695 ft | 468 kts | 116° |
| 2026-05-04 19:37 | 60.94131 | -147.17828 | 31999 ft | 469 kts | 116° |
| 2026-05-04 19:37 | 60.93139 | -147.11427 | 32367 ft | 468 kts | 116° |
| 2026-05-04 19:37 | 60.92149 | -147.05055 | 32786 ft | 466 kts | 116° |
| 2026-05-04 19:37 | 60.91160 | -146.98704 | 33102 ft | 468 kts | 116° |
| 2026-05-04 19:38 | 60.90152 | -146.92286 | 33137 ft | 474 kts | 117° |
| 2026-05-04 19:38 | 60.88131 | -146.79458 | 33178 ft | 474 kts | 117° |
| 2026-05-04 19:39 | 60.86112 | -146.66662 | 33183 ft | 468 kts | 117° |
| 2026-05-04 19:39 | 60.84090 | -146.53972 | 33187 ft | 466 kts | 117° |
| 2026-05-04 19:40 | 60.82070 | -146.41420 | 33181 ft | 467 kts | 117° |
| 2026-05-04 19:40 | 60.80024 | -146.28785 | 33178 ft | 467 kts | 117° |
| 2026-05-04 19:41 | 60.77952 | -146.16133 | 33174 ft | 469 kts | 117° |
| 2026-05-04 19:41 | 60.75879 | -146.03449 | 33169 ft | 470 kts | 117° |
| 2026-05-04 19:42 | 60.73795 | -145.90820 | 33137 ft | 471 kts | 117° |
| 2026-05-04 19:42 | 60.71677 | -145.78138 | 33154 ft | 472 kts | 117° |
| 2026-05-04 19:43 | 60.69547 | -145.65399 | 33142 ft | 475 kts | 117° |
| 2026-05-04 19:43 | 60.67387 | -145.52657 | 33118 ft | 475 kts | 117° |
| 2026-05-04 19:44 | 60.65246 | -145.40001 | 33124 ft | 474 kts | 118° |
| 2026-05-04 19:44 | 60.63081 | -145.27330 | 33074 ft | 472 kts | 118° |
| 2026-05-04 19:45 | 60.60912 | -145.14701 | 33100 ft | 472 kts | 118° |
| 2026-05-04 19:45 | 60.58675 | -145.02179 | 33139 ft | 471 kts | 118° |
| 2026-05-04 19:46 | 60.56507 | -144.89642 | 33143 ft | 473 kts | 118° |
| 2026-05-04 19:46 | 60.54305 | -144.77002 | 33134 ft | 473 kts | 118° |
| 2026-05-04 19:47 | 60.52076 | -144.64372 | 33114 ft | 475 kts | 118° |
| 2026-05-04 19:47 | 60.49840 | -144.51822 | 33116 ft | 475 kts | 118° |
| 2026-05-04 19:48 | 60.47573 | -144.39191 | 33118 ft | 476 kts | 118° |
| 2026-05-04 19:48 | 60.45296 | -144.26562 | 33103 ft | 476 kts | 119° |
| 2026-05-04 19:49 | 60.43024 | -144.14060 | 33117 ft | 475 kts | 119° |
| 2026-05-04 19:49 | 60.41114 | -144.03625 | 33092 ft | 475 kts | 119° |
| 2026-05-04 19:50 | 60.38431 | -143.89057 | 33104 ft | 474 kts | 119° |
| 2026-05-04 19:50 | 60.36515 | -143.78682 | 33099 ft | 474 kts | 119° |
| 2026-05-04 19:51 | 60.34188 | -143.66207 | 33113 ft | 473 kts | 119° |